createdAt,value
2017-11-17T00:01:29.750Z,26.90
2017-11-17T00:03:58.665Z,25.53
2017-11-17T00:06:26.801Z,27.80
2017-11-17T00:08:54.941Z,29.03
2017-11-17T00:11:23.053Z,25.77
2017-11-17T00:13:51.964Z,27.43
2017-11-17T00:16:20.850Z,29.67
2017-11-17T00:18:49.787Z,27.70
2017-11-17T00:21:17.933Z,28.13
2017-11-17T00:23:46.070Z,27.87
2017-11-17T00:26:14.974Z,29.60
2017-11-17T00:28:43.866Z,29.73
2017-11-17T00:31:12.761Z,27.53
2017-11-17T00:33:40.906Z,29.30
2017-11-17T00:36:09.121Z,27.33
2017-11-17T00:38:37.237Z,26.60
2017-11-17T00:41:06.892Z,26.80
2017-11-17T00:43:35.020Z,28.13
2017-11-17T00:46:03.159Z,28.57
2017-11-17T00:48:31.290Z,28.90
2017-11-17T00:50:59.450Z,29.77
2017-11-17T00:53:27.576Z,29.73
2017-11-17T00:55:55.716Z,28.83
2017-11-17T00:58:23.850Z,28.00
2017-11-17T01:00:52.005Z,29.50
2017-11-17T01:03:20.125Z,28.20
2017-11-17T01:05:49.032Z,28.67
2017-11-17T01:08:17.180Z,28.37
2017-11-17T01:10:45.292Z,30.10
2017-11-17T01:13:13.430Z,29.70
2017-11-17T01:15:42.349Z,31.50
2017-11-17T01:18:10.462Z,30.10
2017-11-17T01:20:38.602Z,28.03
2017-11-17T01:23:06.736Z,29.60
2017-11-17T01:25:35.665Z,28.50
2017-11-17T01:28:03.768Z,29.00
2017-11-17T01:30:31.918Z,30.67
2017-11-17T01:33:00.033Z,30.60
2017-11-17T01:35:28.965Z,30.70
2017-11-17T01:37:57.106Z,32.67
2017-11-17T01:40:25.975Z,29.90
2017-11-17T01:42:55.638Z,30.77
2017-11-17T01:45:23.753Z,28.80
2017-11-17T01:47:51.983Z,29.33
2017-11-17T01:50:20.114Z,31.20
2017-11-17T01:52:49.021Z,28.93
2017-11-17T01:55:17.934Z,30.90
2017-11-17T01:57:46.056Z,29.33
2017-11-17T02:00:15.731Z,28.27
2017-11-17T02:02:43.864Z,29.03
2017-11-17T02:05:11.998Z,28.70
2017-11-17T02:07:40.160Z,30.60
2017-11-17T02:10:08.316Z,27.90
2017-11-17T02:12:36.453Z,30.23
2017-11-17T02:15:05.361Z,27.83
2017-11-17T02:17:33.496Z,29.07
2017-11-17T02:20:02.424Z,28.90
2017-11-17T02:22:30.549Z,28.47
2017-11-17T02:24:58.702Z,30.23
2017-11-17T02:27:26.831Z,29.03
2017-11-17T02:29:54.973Z,27.90
2017-11-17T02:32:23.094Z,28.30
2017-11-17T02:34:51.234Z,29.83
2017-11-17T02:37:19.372Z,27.63
2017-11-17T02:39:47.491Z,29.73
2017-11-17T02:42:15.633Z,27.33
2017-11-17T02:44:44.521Z,29.10
2017-11-17T02:47:13.423Z,29.80
2017-11-17T02:49:42.336Z,29.30
2017-11-17T02:52:10.480Z,27.33
2017-11-17T02:54:39.389Z,27.63
2017-11-17T02:57:07.522Z,29.87
2017-11-17T02:59:35.662Z,29.60
2017-11-17T03:02:03.781Z,30.00
2017-11-17T03:04:32.680Z,32.00
2017-11-17T03:07:01.585Z,29.50
2017-11-17T03:09:29.737Z,28.93
2017-11-17T03:11:58.617Z,27.80
2017-11-17T03:14:26.748Z,30.30
2017-11-17T03:16:54.877Z,28.30
2017-11-17T03:19:23.763Z,29.93
2017-11-17T03:21:52.660Z,31.10
2017-11-17T03:24:21.590Z,29.93
2017-11-17T03:26:49.718Z,29.60
2017-11-17T03:29:18.610Z,32.70
2017-11-17T03:31:47.513Z,29.03
2017-11-17T03:34:15.657Z,28.97
2017-11-17T03:36:43.790Z,31.53
2017-11-17T03:39:11.949Z,31.27
2017-11-17T03:41:40.091Z,31.13
2017-11-17T03:44:08.969Z,31.77
2017-11-17T03:46:37.875Z,31.80
2017-11-17T03:49:06.015Z,32.57
2017-11-17T03:51:34.141Z,30.87
2017-11-17T03:54:02.305Z,31.40
2017-11-17T03:56:30.490Z,33.63
2017-11-17T03:58:58.629Z,30.50
2017-11-17T04:01:27.531Z,33.17
2017-11-17T04:03:56.437Z,33.17
2017-11-17T04:06:24.580Z,32.17
2017-11-17T04:08:53.474Z,33.17
2017-11-17T04:11:22.348Z,33.80
2017-11-17T04:13:51.275Z,35.27
2017-11-17T04:16:19.395Z,34.10
2017-11-17T04:18:47.594Z,33.37
2017-11-17T04:21:16.497Z,33.77
2017-11-17T04:23:44.642Z,34.00
2017-11-17T04:26:12.771Z,32.20
2017-11-17T04:28:40.909Z,32.77
2017-11-17T04:31:09.093Z,32.30
2017-11-17T04:33:37.224Z,32.37
2017-11-17T04:36:05.346Z,33.30
2017-11-17T04:38:33.491Z,34.90
2017-11-17T04:41:02.419Z,31.77
2017-11-17T04:43:30.558Z,32.70
2017-11-17T04:45:59.467Z,34.30
2017-11-17T04:48:27.601Z,33.30
2017-11-17T04:50:56.485Z,34.50
2017-11-17T04:53:24.621Z,34.23
2017-11-17T04:55:53.512Z,33.90
2017-11-17T04:58:21.684Z,33.13
2017-11-17T05:00:49.899Z,35.57
2017-11-17T05:03:18.024Z,33.60
2017-11-17T05:05:46.170Z,32.33
2017-11-17T05:08:15.086Z,31.30
2017-11-17T05:10:43.994Z,33.37
2017-11-17T05:13:12.122Z,34.20
2017-11-17T05:15:40.305Z,37.40
2017-11-17T05:18:08.444Z,36.77
2017-11-17T05:20:36.577Z,35.50
2017-11-17T05:23:05.465Z,35.27
2017-11-17T05:25:33.590Z,34.83
2017-11-17T05:28:02.505Z,34.50
2017-11-17T05:30:30.633Z,34.20
2017-11-17T05:32:58.769Z,36.87
2017-11-17T05:35:26.961Z,33.10
2017-11-17T05:37:55.085Z,34.93
2017-11-17T05:40:23.211Z,33.53
2017-11-17T05:42:51.441Z,34.03
2017-11-17T05:45:19.582Z,35.10
2017-11-17T05:47:48.491Z,34.93
2017-11-17T05:50:16.628Z,35.60
2017-11-17T05:52:44.749Z,34.03
2017-11-17T05:55:12.914Z,31.83
2017-11-17T05:57:41.064Z,32.50
2017-11-17T06:00:09.956Z,32.47
2017-11-17T06:02:38.869Z,32.77
2017-11-17T06:05:07.001Z,34.40
2017-11-17T06:07:35.897Z,33.43
2017-11-17T06:10:04.789Z,32.97
2017-11-17T06:12:33.725Z,33.67
2017-11-17T06:15:01.863Z,34.67
2017-11-17T06:17:30.789Z,35.17
2017-11-17T06:19:58.913Z,34.20
2017-11-17T06:22:27.809Z,33.90
2017-11-17T06:24:55.937Z,37.53
2017-11-17T06:27:24.075Z,37.37
2017-11-17T06:29:52.215Z,36.07
2017-11-17T06:32:20.338Z,34.57
2017-11-17T06:34:48.496Z,33.47
2017-11-17T06:37:16.660Z,33.67
2017-11-17T06:39:45.548Z,34.03
2017-11-17T06:42:13.676Z,33.70
2017-11-17T06:44:41.833Z,33.53
2017-11-17T06:47:09.983Z,35.60
2017-11-17T06:49:38.114Z,33.90
2017-11-17T06:52:07.041Z,35.57
2017-11-17T06:54:35.247Z,35.20
2017-11-17T06:57:03.427Z,35.90
2017-11-17T06:59:31.577Z,33.53
2017-11-17T07:01:59.685Z,37.07
2017-11-17T07:04:27.830Z,34.07
2017-11-17T07:06:56.733Z,36.40
2017-11-17T07:09:24.870Z,38.70
2017-11-17T07:11:53.026Z,36.33
2017-11-17T07:14:22.032Z,34.43
2017-11-17T07:16:50.162Z,33.10
2017-11-17T07:19:18.290Z,32.80
2017-11-17T07:21:46.457Z,34.47
2017-11-17T07:24:15.452Z,34.10
2017-11-17T07:26:43.611Z,36.50
2017-11-17T07:29:11.778Z,34.33
2017-11-17T07:31:39.918Z,36.10
2017-11-17T07:34:08.101Z,35.27
2017-11-17T07:36:36.237Z,35.80
2017-11-17T07:39:04.368Z,37.03
2017-11-17T07:41:32.508Z,32.90
2017-11-17T07:44:00.638Z,34.87
2017-11-17T07:46:29.530Z,34.57
2017-11-17T07:48:57.702Z,33.23
2017-11-17T07:51:25.827Z,33.00
2017-11-17T07:53:54.816Z,32.27
2017-11-17T07:56:22.930Z,32.67
2017-11-17T07:58:51.062Z,30.47
2017-11-17T08:01:19.200Z,32.50
2017-11-17T08:03:47.474Z,32.83
2017-11-17T08:06:15.593Z,34.30
2017-11-17T08:08:44.504Z,33.70
2017-11-17T08:11:12.640Z,34.93
2017-11-17T08:13:41.560Z,34.10
2017-11-17T08:16:09.716Z,32.90
2017-11-17T08:18:41.161Z,34.23
2017-11-17T08:21:09.305Z,34.50
2017-11-17T08:23:37.421Z,33.27
2017-11-17T08:26:05.583Z,33.93
2017-11-17T08:28:34.467Z,32.70
2017-11-17T08:31:03.383Z,36.67
2017-11-17T08:33:31.531Z,34.30
2017-11-17T08:35:59.669Z,35.93
2017-11-17T08:38:27.796Z,36.17
2017-11-17T08:40:55.937Z,35.77
2017-11-17T08:43:24.841Z,37.57
2017-11-17T08:45:53.729Z,37.30
2017-11-17T08:48:22.637Z,37.37
2017-11-17T08:50:50.774Z,37.70
2017-11-17T08:53:18.922Z,36.20
2017-11-17T08:55:47.045Z,39.37
2017-11-17T08:58:15.201Z,38.47
2017-11-17T09:00:43.357Z,38.17
2017-11-17T09:03:11.537Z,37.10
2017-11-17T09:05:39.654Z,39.67
2017-11-17T09:08:07.813Z,39.50
2017-11-17T09:10:36.705Z,40.57
2017-11-17T09:13:06.097Z,36.97
2017-11-17T09:15:35.019Z,39.50
2017-11-17T09:18:03.174Z,38.87
2017-11-17T09:20:31.305Z,36.70
2017-11-17T09:22:59.468Z,39.83
2017-11-17T09:25:27.612Z,38.67
2017-11-17T09:27:55.756Z,38.03
2017-11-17T09:30:23.933Z,36.37
2017-11-17T09:32:52.064Z,37.90
2017-11-17T09:35:20.205Z,37.60
2017-11-17T09:37:48.330Z,38.40
2017-11-17T09:40:17.229Z,39.70
2017-11-17T09:42:45.379Z,38.10
2017-11-17T09:45:15.007Z,40.37
2017-11-17T09:47:43.930Z,42.47
2017-11-17T09:50:12.079Z,41.37
2017-11-17T09:52:40.240Z,40.47
2017-11-17T09:55:09.145Z,41.13
2017-11-17T09:57:37.377Z,40.57
2017-11-17T10:00:05.485Z,37.87
2017-11-17T10:02:33.644Z,41.13
2017-11-17T10:05:02.559Z,41.37
2017-11-17T10:07:30.737Z,39.80
2017-11-17T10:09:58.874Z,42.77
2017-11-17T10:12:27.024Z,43.37
2017-11-17T10:14:55.143Z,42.43
2017-11-17T10:17:23.287Z,42.47
2017-11-17T10:19:51.429Z,44.50
2017-11-17T10:22:19.585Z,44.90
2017-11-17T10:24:47.754Z,43.37
2017-11-17T10:27:15.900Z,43.37
2017-11-17T10:29:44.817Z,41.57
2017-11-17T10:32:13.012Z,43.10
2017-11-17T10:34:41.175Z,40.70
2017-11-17T10:37:10.120Z,38.70
2017-11-17T10:39:38.403Z,40.53
2017-11-17T10:42:07.386Z,40.03
2017-11-17T10:44:36.302Z,44.10
2017-11-17T10:47:04.438Z,41.20
2017-11-17T10:49:33.403Z,41.40
2017-11-17T10:52:01.532Z,43.40
2017-11-17T10:54:29.711Z,44.20
2017-11-17T10:56:58.211Z,44.50
2017-11-17T10:59:26.346Z,38.30
2017-11-17T11:01:54.503Z,40.60
2017-11-17T11:04:23.427Z,42.27
2017-11-17T11:06:51.599Z,42.27
2017-11-17T11:09:19.755Z,41.00
2017-11-17T11:11:52.050Z,41.93
2017-11-17T11:14:20.196Z,40.73
2017-11-17T11:16:48.342Z,44.17
2017-11-17T11:19:16.478Z,42.63
2017-11-17T11:21:44.627Z,41.60
2017-11-17T11:24:13.586Z,42.87
2017-11-17T11:26:42.485Z,41.23
2017-11-17T11:29:11.433Z,41.07
2017-11-17T11:31:40.365Z,40.77
2017-11-17T11:34:09.273Z,41.70
2017-11-17T11:36:37.412Z,42.47
2017-11-17T11:39:05.571Z,37.33
2017-11-17T11:41:33.717Z,41.57
2017-11-17T11:44:01.884Z,40.50
2017-11-17T11:46:30.006Z,43.47
2017-11-17T11:48:58.917Z,41.63
2017-11-17T11:51:27.834Z,42.10
2017-11-17T11:53:55.977Z,40.90
2017-11-17T11:56:24.191Z,40.27
2017-11-17T11:58:52.309Z,44.20
2017-11-17T12:01:21.231Z,42.93
2017-11-17T12:03:49.380Z,43.37
2017-11-17T12:06:18.297Z,41.53
2017-11-17T12:08:46.462Z,43.10
2017-11-17T12:11:14.604Z,40.70
2017-11-17T12:13:42.751Z,39.57
2017-11-17T12:16:10.899Z,43.00
2017-11-17T12:18:39.044Z,43.47
2017-11-17T12:21:07.947Z,40.53
2017-11-17T12:23:36.089Z,41.47
2017-11-17T12:26:04.979Z,41.50
2017-11-17T12:28:34.229Z,39.03
2017-11-17T12:31:02.360Z,41.17
2017-11-17T12:33:31.310Z,41.97
2017-11-17T12:35:59.461Z,39.67
2017-11-17T12:38:27.612Z,40.83
2017-11-17T12:40:55.761Z,42.10
2017-11-17T12:43:24.732Z,41.53
2017-11-17T12:45:52.931Z,42.00
2017-11-17T12:48:21.076Z,42.20
2017-11-17T12:50:49.238Z,41.93
2017-11-17T12:53:17.373Z,41.00
2017-11-17T12:55:45.560Z,44.77
2017-11-17T12:58:13.686Z,43.30
2017-11-17T13:00:42.972Z,42.83
2017-11-17T13:03:11.123Z,41.63
2017-11-17T13:05:39.302Z,41.37
2017-11-17T13:08:07.455Z,41.03
2017-11-17T13:10:35.605Z,41.57
2017-11-17T13:13:03.758Z,38.97
2017-11-17T13:15:32.698Z,39.73
2017-11-17T13:18:00.853Z,38.80
2017-11-17T13:20:29.013Z,37.83
2017-11-17T13:22:57.948Z,39.20
2017-11-17T13:25:26.072Z,38.33
2017-11-17T13:27:55.058Z,40.17
2017-11-17T13:30:23.959Z,39.03
2017-11-17T13:32:52.109Z,44.30
2017-11-17T13:35:21.043Z,39.27
2017-11-17T13:37:49.168Z,37.33
2017-11-17T13:40:18.079Z,34.63
2017-11-17T13:42:46.249Z,38.47
2017-11-17T13:45:14.393Z,39.00
2017-11-17T13:47:43.340Z,37.07
2017-11-17T13:50:11.468Z,36.10
2017-11-17T13:52:40.375Z,35.97
2017-11-17T13:55:09.279Z,36.57
2017-11-17T13:57:37.397Z,35.83
2017-11-17T14:00:05.557Z,36.50
2017-11-17T14:02:33.762Z,36.07
2017-11-17T14:05:02.694Z,34.70
2017-11-17T14:07:30.856Z,36.20
2017-11-17T14:09:59.062Z,36.83
2017-11-17T14:12:27.225Z,39.30
2017-11-17T14:14:55.421Z,35.77
2017-11-17T14:17:23.575Z,38.10
2017-11-17T14:19:51.731Z,39.27
2017-11-17T14:22:19.877Z,40.43
2017-11-17T14:24:48.035Z,41.07
2017-11-17T14:27:16.969Z,41.57
2017-11-17T14:29:45.241Z,40.00
2017-11-17T14:32:13.400Z,38.53
2017-11-17T14:34:41.550Z,41.73
2017-11-17T14:37:10.473Z,42.80
2017-11-17T14:39:38.643Z,39.97
2017-11-17T14:42:06.826Z,43.07
2017-11-17T14:44:34.986Z,43.30
2017-11-17T14:47:03.144Z,40.07
2017-11-17T14:49:32.044Z,39.77
2017-11-17T14:52:00.196Z,38.23
2017-11-17T14:54:29.120Z,36.70
2017-11-17T14:56:58.040Z,33.30
2017-11-17T14:59:26.182Z,34.80
2017-11-17T15:01:54.359Z,31.30
2017-11-17T15:04:22.493Z,32.10
2017-11-17T15:06:51.434Z,31.27
2017-11-17T15:09:19.576Z,26.37
2017-11-17T15:11:47.715Z,26.83
2017-11-17T15:14:15.903Z,26.20
2017-11-17T15:16:44.074Z,25.07
2017-11-17T15:19:13.056Z,29.03
2017-11-17T15:21:41.185Z,31.57
2017-11-17T15:24:09.356Z,31.10
2017-11-17T15:26:37.532Z,25.77
2017-11-17T15:29:05.687Z,28.03
2017-11-17T15:31:33.825Z,26.50
2017-11-17T15:34:01.981Z,29.37
2017-11-17T15:36:30.117Z,28.97
2017-11-17T15:38:58.281Z,30.47
2017-11-17T15:41:26.425Z,31.20
2017-11-17T15:43:55.318Z,34.40
2017-11-17T15:46:24.242Z,32.77
2017-11-17T15:48:52.406Z,30.97
2017-11-17T15:51:20.579Z,30.77
2017-11-17T15:53:48.750Z,30.67
2017-11-17T15:56:16.930Z,31.47
2017-11-17T15:58:45.081Z,32.70
2017-11-17T16:01:13.332Z,33.10
2017-11-17T16:03:42.307Z,31.80
2017-11-17T16:06:10.478Z,32.10
2017-11-17T16:08:38.616Z,34.77
2017-11-17T16:11:06.796Z,35.10
2017-11-17T16:13:35.042Z,32.90
2017-11-17T16:16:03.211Z,37.17
2017-11-17T16:18:32.142Z,37.20
2017-11-17T16:21:00.262Z,38.33
2017-11-17T16:23:29.193Z,35.80
2017-11-17T16:25:57.332Z,38.07
2017-11-17T16:28:26.271Z,34.47
2017-11-17T16:30:54.410Z,36.50
2017-11-17T16:33:23.356Z,37.20
2017-11-17T16:35:51.606Z,36.50
2017-11-17T16:38:19.937Z,35.13
2017-11-17T16:40:48.131Z,35.20
2017-11-17T16:43:16.262Z,34.63
2017-11-17T16:45:44.838Z,34.80
2017-11-17T16:48:13.083Z,33.20
2017-11-17T16:50:41.239Z,36.67
2017-11-17T16:53:09.399Z,38.70
2017-11-17T16:55:37.542Z,36.27
2017-11-17T16:58:05.690Z,38.10
2017-11-17T17:00:33.844Z,36.13
2017-11-17T17:03:02.013Z,37.07
2017-11-17T17:05:30.190Z,40.03
2017-11-17T17:07:58.351Z,36.20
2017-11-17T17:10:26.515Z,37.57
2017-11-17T17:12:54.693Z,35.43
2017-11-17T17:15:22.846Z,38.87
2017-11-17T17:17:51.026Z,36.83
2017-11-17T17:20:19.163Z,40.53
2017-11-17T17:22:47.351Z,39.77
2017-11-17T17:25:15.546Z,38.90
2017-11-17T17:27:43.691Z,37.67
2017-11-17T17:30:12.626Z,40.53
2017-11-17T17:32:40.801Z,45.87
2017-11-17T17:35:08.979Z,44.43
2017-11-17T17:37:37.397Z,38.00
2017-11-17T17:40:05.527Z,39.50
2017-11-17T17:42:33.690Z,38.37
2017-11-17T17:45:01.840Z,37.93
2017-11-17T17:47:30.749Z,38.63
2017-11-17T17:49:58.914Z,37.30
2017-11-17T17:52:27.080Z,38.00
2017-11-17T17:54:56.003Z,40.10
2017-11-17T17:57:24.150Z,36.10
2017-11-17T17:59:52.306Z,38.67
2017-11-17T18:02:20.475Z,39.37
2017-11-17T18:04:49.376Z,38.20
2017-11-17T18:07:17.549Z,40.53
2017-11-17T18:09:45.701Z,40.13
2017-11-17T18:12:13.933Z,38.67
2017-11-17T18:14:42.069Z,38.40
2017-11-17T18:17:10.220Z,38.60
2017-11-17T18:19:38.383Z,38.20
2017-11-17T18:22:06.573Z,37.57
2017-11-17T18:24:35.496Z,35.30
2017-11-17T18:27:03.717Z,36.60
2017-11-17T18:29:31.872Z,36.10
2017-11-17T18:32:00.007Z,37.63
2017-11-17T18:34:28.909Z,35.83
2017-11-17T18:36:57.082Z,36.53
2017-11-17T18:39:25.239Z,35.93
2017-11-17T18:41:53.483Z,41.07
2017-11-17T18:44:21.571Z,44.00
2017-11-17T18:46:50.467Z,41.03
2017-11-17T18:49:18.626Z,40.43
2017-11-17T18:51:46.865Z,37.60
2017-11-17T18:54:14.944Z,40.50
2017-11-17T18:56:43.124Z,41.70
2017-11-17T18:59:11.232Z,42.17
2017-11-17T19:01:39.446Z,43.00
2017-11-17T19:04:08.309Z,40.27
2017-11-17T19:06:36.482Z,42.60
2017-11-17T19:09:04.692Z,44.37
2017-11-17T19:11:33.609Z,45.67
2017-11-17T19:14:01.833Z,41.40
2017-11-17T19:16:29.992Z,42.90
2017-11-17T19:18:58.143Z,39.87
2017-11-17T19:21:27.108Z,43.10
2017-11-17T19:23:55.307Z,38.57
2017-11-17T19:26:24.229Z,43.20
2017-11-17T19:28:52.443Z,39.87
2017-11-17T19:31:20.583Z,45.87
2017-11-17T19:33:48.739Z,41.27
2017-11-17T19:36:16.943Z,43.00
2017-11-17T19:38:45.091Z,43.40
2017-11-17T19:41:13.255Z,41.93
2017-11-17T19:43:41.473Z,44.47
2017-11-17T19:46:09.631Z,43.33
2017-11-17T19:48:37.781Z,41.27
2017-11-17T19:51:06.735Z,42.00
2017-11-17T19:53:35.644Z,41.20
2017-11-17T19:56:03.808Z,40.13
2017-11-17T19:58:32.703Z,41.10
2017-11-17T20:01:00.855Z,40.70
2017-11-17T20:03:29.795Z,42.97
2017-11-17T20:05:57.963Z,39.23
2017-11-17T20:08:26.134Z,40.23
2017-11-17T20:10:54.281Z,39.50
2017-11-17T20:13:23.222Z,41.17
2017-11-17T20:15:52.111Z,38.67
2017-11-17T20:18:20.305Z,40.40
2017-11-17T20:20:48.434Z,40.60
2017-11-17T20:23:16.607Z,39.73
2017-11-17T20:25:44.770Z,38.43
2017-11-17T20:28:12.940Z,37.00
2017-11-17T20:30:41.100Z,39.03
2017-11-17T20:33:10.030Z,39.07
2017-11-17T20:35:38.160Z,38.10
2017-11-17T20:38:07.096Z,42.97
2017-11-17T20:40:35.238Z,42.60
2017-11-17T20:43:03.396Z,40.80
2017-11-17T20:45:32.326Z,38.07
2017-11-17T20:48:00.497Z,38.10
2017-11-17T20:50:28.653Z,37.50
2017-11-17T20:52:57.575Z,36.87
2017-11-17T20:55:25.747Z,36.20
2017-11-17T20:57:53.893Z,37.57
2017-11-17T21:00:22.023Z,36.53
2017-11-17T21:02:50.205Z,36.13
2017-11-17T21:05:18.423Z,35.30
2017-11-17T21:07:46.618Z,36.33
2017-11-17T21:10:14.780Z,37.17
2017-11-17T21:12:42.954Z,35.50
2017-11-17T21:15:11.112Z,33.93
2017-11-17T21:17:39.266Z,35.30
2017-11-17T21:20:08.187Z,35.97
2017-11-17T21:22:36.358Z,35.90
2017-11-17T21:25:06.176Z,35.03
2017-11-17T21:27:34.328Z,34.40
2017-11-17T21:30:02.482Z,35.37
2017-11-17T21:32:31.396Z,38.30
2017-11-17T21:34:59.569Z,33.57
2017-11-17T21:37:27.725Z,33.97
2017-11-17T21:39:55.898Z,35.37
2017-11-17T21:42:24.056Z,34.33
2017-11-17T21:44:52.986Z,34.60
2017-11-17T21:47:21.139Z,36.63
2017-11-17T21:49:49.290Z,34.00
2017-11-17T21:52:18.214Z,33.60
2017-11-17T21:54:46.353Z,33.10
2017-11-17T21:57:15.286Z,34.70
2017-11-17T21:59:43.451Z,37.23
2017-11-17T22:02:11.578Z,37.47
2017-11-17T22:04:39.732Z,36.10
2017-11-17T22:07:07.886Z,35.10
2017-11-17T22:09:36.810Z,35.80
2017-11-17T22:12:06.477Z,36.20
2017-11-17T22:14:34.751Z,35.57
2017-11-17T22:17:02.891Z,37.43
2017-11-17T22:19:31.078Z,36.10
2017-11-17T22:21:59.264Z,35.93
2017-11-17T22:24:27.415Z,36.83
2017-11-17T22:26:55.576Z,37.10
2017-11-17T22:29:24.470Z,39.40
2017-11-17T22:31:53.412Z,37.60
2017-11-17T22:34:21.568Z,39.50
2017-11-17T22:36:50.469Z,36.63
2017-11-17T22:39:18.635Z,38.70
2017-11-17T22:41:46.788Z,34.47
2017-11-17T22:44:15.159Z,36.77
2017-11-17T22:46:43.298Z,34.87
2017-11-17T22:49:11.453Z,34.27
2017-11-17T22:51:39.592Z,35.97
2017-11-17T22:54:07.801Z,37.73
2017-11-17T22:56:35.950Z,35.70
2017-11-17T22:59:04.081Z,37.70
2017-11-17T23:01:32.221Z,36.07
2017-11-17T23:04:00.342Z,34.70
2017-11-17T23:06:28.848Z,35.07
2017-11-17T23:08:57.049Z,36.83
2017-11-17T23:11:25.210Z,37.23
2017-11-17T23:13:53.342Z,37.37
2017-11-17T23:16:21.498Z,36.47
2017-11-17T23:18:49.671Z,35.73
2017-11-17T23:21:18.563Z,33.33
2017-11-17T23:23:46.705Z,35.10
2017-11-17T23:26:14.855Z,36.07
2017-11-17T23:28:42.982Z,36.60
2017-11-17T23:31:11.144Z,41.73
2017-11-17T23:33:40.030Z,37.30
2017-11-17T23:36:08.947Z,38.93
2017-11-17T23:38:37.080Z,36.50
2017-11-17T23:41:05.999Z,35.33
2017-11-17T23:43:34.898Z,38.10
2017-11-17T23:46:03.031Z,38.07
2017-11-17T23:48:31.954Z,35.63
2017-11-17T23:51:00.067Z,33.93
2017-11-17T23:53:28.225Z,34.67
2017-11-17T23:55:56.368Z,36.20
2017-11-17T23:58:25.296Z,33.63
